createdAt,value
2024-01-14T21:34:27.809Z,31.60
2024-01-14T21:36:54.801Z,32.00
2024-01-14T21:39:22.087Z,37.47
2024-01-14T21:41:51.262Z,35.97
2024-01-14T21:44:18.170Z,37.90
2024-01-14T21:46:45.220Z,39.45
2024-01-14T21:49:12.667Z,39.08
2024-01-14T21:51:41.549Z,39.33
2024-01-14T21:54:08.755Z,39.38
2024-01-14T21:56:35.786Z,37.78
2024-01-14T21:59:02.851Z,44.47
2024-01-14T22:01:30.025Z,46.28
2024-01-14T22:03:57.337Z,41.42
2024-01-14T22:06:24.356Z,41.75
2024-01-14T22:08:51.345Z,50.03
2024-01-14T22:11:18.292Z,42.80
2024-01-14T22:13:45.255Z,42.92
2024-01-14T22:16:13.010Z,46.83
2024-01-14T22:18:40.199Z,38.78
2024-01-14T22:21:07.744Z,38.13
2024-01-14T22:23:34.877Z,36.13
2024-01-14T22:26:01.784Z,36.67
2024-01-14T22:28:28.838Z,35.83
2024-01-14T22:30:56.224Z,32.53
2024-01-14T22:33:23.358Z,34.63
2024-01-14T22:35:55.113Z,36.10
2024-01-14T22:38:22.257Z,31.35
2024-01-14T22:40:49.234Z,31.67
2024-01-14T22:43:16.295Z,31.58
2024-01-14T22:45:43.486Z,31.98
2024-01-14T22:48:10.654Z,30.80
2024-01-14T22:50:37.696Z,29.85
2024-01-14T22:53:04.846Z,29.10
2024-01-14T22:55:31.824Z,31.63
2024-01-14T22:57:58.830Z,29.40
2024-01-14T23:00:29.471Z,28.33
2024-01-14T23:02:56.716Z,29.10
2024-01-14T23:05:23.772Z,28.40
2024-01-14T23:07:50.933Z,26.45
2024-01-14T23:10:17.917Z,30.27
2024-01-14T23:12:44.871Z,29.67
2024-01-14T23:15:12.016Z,32.65
2024-01-14T23:17:39.175Z,31.48
2024-01-14T23:20:06.947Z,33.05
2024-01-14T23:22:33.896Z,33.35
2024-01-14T23:25:00.796Z,35.10
2024-01-14T23:27:27.812Z,33.58
2024-01-14T23:29:54.862Z,37.40
2024-01-14T23:32:21.895Z,40.08
2024-01-14T23:34:49.216Z,38.17
2024-01-14T23:37:16.567Z,38.90
2024-01-14T23:39:43.618Z,38.13
2024-01-14T23:42:10.725Z,34.78
2024-01-14T23:44:40.829Z,29.90
2024-01-14T23:47:07.812Z,29.05
2024-01-14T23:49:35.033Z,28.67
2024-01-14T23:52:02.159Z,28.58
2024-01-14T23:54:29.159Z,30.25
2024-01-14T23:56:56.110Z,29.90
2024-01-14T23:59:23.087Z,30.38
